Time;durP1;ratioP1;P1;durP2;ratioP2;P2;SDS_P1;SDS_P2;PMS_P1;PMS_P2;Temp;Humidity;BMP_temperature;BMP_pressure;BME280_temperature;BME280_humidity;BME280_pressure;Samples;Min_cycle;Max_cycle;Signal;HPM_P1;HPM_P2
2021/08/14 00:00:07;;;;;;;;;;;18.60;99.90;;;;;;5055820;28;20171;-78
2021/08/14 00:02:33;;;;;;;17.75;6.40;;;18.70;99.90;;;;;;5055044;28;19908;-77
2021/08/14 00:04:59;;;;;;;11.60;5.90;;;18.80;99.90;;;;;;5055217;28;20131;-78
2021/08/14 00:07:24;;;;;;;;;;;18.80;99.90;;;;;;5055532;28;20092;-78
2021/08/14 00:09:50;;;;;;;13.10;6.00;;;18.70;99.90;;;;;;5055096;28;19904;-78
2021/08/14 00:12:16;;;;;;;;;;;18.50;99.90;;;;;;5037461;28;20028;-78
2021/08/14 00:14:42;;;;;;;10.93;5.55;;;18.70;99.90;;;;;;5055092;28;19940;-77
2021/08/14 00:17:07;;;;;;;;;;;18.70;99.90;;;;;;5055314;28;20048;-79
2021/08/14 00:19:33;;;;;;;12.20;5.50;;;18.60;99.90;;;;;;5055322;28;19905;-78
2021/08/14 00:21:58;;;;;;;;;;;18.50;99.90;;;;;;5055097;28;20485;-79
2021/08/14 00:24:24;;;;;;;16.67;5.97;;;18.50;99.90;;;;;;5054824;28;20388;-78
2021/08/14 00:26:51;;;;;;;;;;;18.40;99.90;;;;;;5055510;28;20021;-78
2021/08/14 00:29:18;;;;;;;12.73;5.93;;;18.70;99.90;;;;;;5054565;28;19904;-79
2021/08/14 00:31:44;;;;;;;11.25;6.28;;;18.70;99.90;;;;;;5054591;28;20025;-79
2021/08/14 00:34:10;;;;;;;13.30;5.75;;;18.70;99.90;;;;;;5054715;28;20025;-78
2021/08/14 00:36:36;;;;;;;12.30;5.35;;;18.70;99.90;;;;;;5036588;28;20031;-78
2021/08/14 00:39:03;;;;;;;11.43;5.00;;;18.60;99.90;;;;;;5054398;28;20033;-77
2021/08/14 00:41:32;;;;;;;10.95;5.68;;;18.50;99.90;;;;;;5054324;28;20055;-78
2021/08/14 00:44:02;;;;;;;10.68;5.40;;;18.20;99.90;;;;;;5036522;28;20053;-78
2021/08/14 00:46:29;;;;;;;10.80;5.82;;;18.10;99.90;;;;;;5053902;28;20120;-79
2021/08/14 00:48:56;;;;;;;11.25;5.70;;;18.10;99.90;;;;;;5054432;28;20021;-78
2021/08/14 00:51:22;;;;;;;13.63;6.20;;;17.90;99.90;;;;;;5054254;28;20489;-79
2021/08/14 00:53:48;;;;;;;;;;;17.90;99.90;;;;;;5036676;28;20124;-77
2021/08/14 00:56:13;;;;;;;14.60;5.78;;;17.80;99.90;;;;;;5054631;28;19952;-79
2021/08/14 00:58:39;;;;;;;;;;;17.80;99.90;;;;;;5054529;28;20452;-79
2021/08/14 01:01:05;;;;;;;11.85;5.68;;;18.10;99.90;;;;;;5036065;28;19916;-79
2021/08/14 01:03:31;;;;;;;;;;;18.10;99.90;;;;;;5054394;28;20039;-79
2021/08/14 01:05:58;;;;;;;12.38;5.93;;;18.20;99.90;;;;;;5053985;28;19904;-79
2021/08/14 01:08:24;;;;;;;15.50;6.50;;;18.10;99.90;;;;;;5053884;28;20021;-77
2021/08/14 01:10:50;;;;;;;;;;;18.20;99.90;;;;;;5054278;28;20029;-78
2021/08/14 01:13:15;;;;;;;12.48;5.80;;;18.10;99.90;;;;;;5053861;28;20353;-79
2021/08/14 01:15:48;;;;;;;;;;;18.00;99.90;;;;;;5054191;28;20489;-79
2021/08/14 01:18:16;;;;;;;11.77;6.32;;;18.10;99.90;;;;;;5053826;28;19950;-78
2021/08/14 01:20:43;;;;;;;12.95;5.65;;;18.00;99.90;;;;;;5053644;28;20017;-78
2021/08/14 01:23:11;;;;;;;15.07;6.05;;;17.80;99.90;;;;;;5053599;28;20384;-78
2021/08/14 01:25:37;;;;;;;11.38;5.82;;;17.60;99.90;;;;;;5053581;28;20021;-77
2021/08/14 01:28:03;;;;;;;11.43;5.38;;;17.50;99.90;;;;;;5053557;28;20108;-78
2021/08/14 01:30:29;;;;;;;;;;;17.40;99.90;;;;;;5053954;28;20446;-79
2021/08/14 01:32:55;;;;;;;14.43;6.50;;;17.30;99.90;;;;;;5053526;28;19911;-77
2021/08/14 01:35:20;;;;;;;;;;;17.40;99.90;;;;;;5053887;28;20055;-79
2021/08/14 01:37:46;;;;;;;12.32;5.15;;;17.80;99.90;;;;;;5053499;28;20372;-79
2021/08/14 01:40:12;;;;;;;;;;;17.90;99.90;;;;;;5053167;28;20021;-78
2021/08/14 01:42:38;;;;;;;9.38;5.13;;;17.70;99.90;;;;;;5035370;28;19958;-78
2021/08/14 01:45:05;;;;;;;;;;;17.50;99.90;;;;;;5053554;28;20052;-78
2021/08/14 01:47:30;;;;;;;13.60;6.40;;;17.60;99.90;;;;;;5053684;28;20381;-79
2021/08/14 01:49:56;;;;;;;;;;;17.60;99.90;;;;;;5053670;28;20060;-78
2021/08/14 01:52:22;;;;;;;11.20;5.72;;;17.70;99.90;;;;;;5053261;28;19928;-78
2021/08/14 01:54:48;;;;;;;;;;;17.40;99.90;;;;;;5053593;28;20025;-79
2021/08/14 01:57:16;;;;;;;9.75;5.32;;;17.20;99.90;;;;;;5053175;28;19911;-77
2021/08/14 01:59:42;;;;;;;12.27;5.85;;;17.10;99.90;;;;;;5053130;28;20023;-78
2021/08/14 02:02:09;;;;;;;10.75;5.43;;;16.90;99.90;;;;;;5035103;28;20576;-78
2021/08/14 02:04:35;;;;;;;13.43;5.38;;;16.90;99.90;;;;;;5053115;28;20075;-78
2021/08/14 02:07:01;;;;;;;;;;;16.80;99.90;;;;;;5053870;28;20017;-78
2021/08/14 02:09:27;;;;;;;14.65;6.82;;;17.10;99.90;;;;;;5053215;28;19905;-79
2021/08/14 02:11:53;;;;;;;16.38;7.00;;;16.90;99.90;;;;;;5053199;28;20111;-80
2021/08/14 02:14:19;;;;;;;;;;;16.80;99.90;;;;;;5053467;28;20053;-79
2021/08/14 02:16:44;;;;;;;13.43;7.32;;;16.80;99.90;;;;;;5052928;28;19904;-78
2021/08/14 02:19:10;;;;;;;;;;;16.90;99.90;;;;;;5053328;28;20028;-78
2021/08/14 02:21:36;;;;;;;16.60;6.45;;;16.90;99.90;;;;;;5052914;28;20269;-78
2021/08/14 02:24:02;;;;;;;;;;;17.20;99.90;;;;;;5035397;28;20025;-78
2021/08/14 02:26:27;;;;;;;11.32;5.50;;;17.30;99.90;;;;;;5053000;28;19948;-78
2021/08/14 02:28:53;;;;;;;;;;;17.40;99.90;;;;;;5053315;28;20033;-78
2021/08/14 02:31:19;;;;;;;14.48;5.82;;;17.40;99.90;;;;;;5052908;28;20376;-78
2021/08/14 02:33:46;;;;;;;14.35;5.43;;;17.30;99.90;;;;;;5053161;28;20366;-78
2021/08/14 02:36:12;;;;;;;10.85;4.82;;;17.30;99.90;;;;;;5052896;28;20508;-78
2021/08/14 02:38:39;;;;;;;8.63;4.43;;;17.20;99.90;;;;;;5052739;28;20028;-77
2021/08/14 02:41:07;;;;;;;13.27;5.50;;;17.10;99.90;;;;;;5052655;28;20025;-79
2021/08/14 02:43:33;;;;;;;11.15;5.70;;;16.90;99.90;;;;;;5034802;28;20108;-79
2021/08/14 02:46:01;;;;;;;12.77;5.40;;;16.90;99.90;;;;;;5052558;28;20056;-78
2021/08/14 02:48:28;;;;;;;11.88;5.70;;;17.00;99.90;;;;;;5052719;28;20075;-79
2021/08/14 02:50:54;;;;;;;10.70;5.75;;;16.90;99.90;;;;;;5054071;28;20037;-78
2021/08/14 02:53:20;;;;;;;;;;;16.70;99.90;;;;;;5056865;28;20547;-78
2021/08/14 02:55:46;;;;;;;13.32;6.10;;;16.50;99.90;;;;;;5057018;28;19944;-78
2021/08/14 02:58:11;;;;;;;;;;;16.20;99.90;;;;;;5056799;28;20029;-79
2021/08/14 03:00:37;;;;;;;14.55;5.70;;;16.30;99.90;;;;;;5056381;28;19905;-77
2021/08/14 03:03:03;;;;;;;;;;;16.40;99.90;;;;;;5057018;28;20499;-78
2021/08/14 03:05:30;;;;;;;12.85;5.45;;;16.50;99.90;;;;;;5056308;28;19904;-79
2021/08/14 03:07:56;;;;;;;12.13;5.70;;;16.50;99.90;;;;;;5056235;28;20025;-78
2021/08/14 03:10:22;;;;;;;;;;;16.30;99.90;;;;;;5056567;28;20158;-79
2021/08/14 03:12:48;;;;;;;13.27;5.75;;;16.20;99.90;;;;;;5056201;28;20368;-78
2021/08/14 03:15:14;;;;;;;;;;;16.20;99.90;;;;;;5056562;28;20025;-78
2021/08/14 03:17:40;;;;;;;13.40;5.63;;;16.00;99.90;;;;;;5056080;28;19916;-78
2021/08/14 03:20:06;;;;;;;;;;;16.00;99.90;;;;;;5056836;28;20389;-78
2021/08/14 03:22:32;;;;;;;15.25;6.53;;;16.10;99.90;;;;;;5056308;28;19920;-78
2021/08/14 03:24:58;;;;;;;;;;;16.00;99.90;;;;;;5038362;28;20021;-77
2021/08/14 03:27:23;;;;;;;15.05;5.88;;;16.10;99.90;;;;;;5055960;28;19913;-78
2021/08/14 03:29:49;;;;;;;;;;;16.10;99.90;;;;;;5056227;28;20043;-79
2021/08/14 03:32:15;;;;;;;15.32;6.13;;;15.90;99.90;;;;;;5055733;28;20333;-78
2021/08/14 03:34:41;;;;;;;;;;;15.80;99.90;;;;;;5056137;28;20029;-77
2021/08/14 03:37:06;;;;;;;15.05;6.40;;;15.70;99.90;;;;;;5055814;28;19905;-78
2021/08/14 03:39:33;;;;;;;;;;;15.90;99.90;;;;;;5056324;28;20028;-78
2021/08/14 03:41:59;;;;;;;11.15;5.38;;;15.90;99.90;;;;;;5055600;28;19958;-79
2021/08/14 03:44:25;;;;;;;13.68;5.85;;;15.80;99.90;;;;;;5055352;28;20025;-79
2021/08/14 03:46:51;;;;;;;;;;;15.80;99.90;;;;;;5056227;28;20098;-79
2021/08/14 03:49:16;;;;;;;11.25;5.20;;;15.70;99.90;;;;;;5055475;28;19905;-78
2021/08/14 03:51:42;;;;;;;;;;;15.80;99.90;;;;;;5055669;28;20029;-78
2021/08/14 03:54:08;;;;;;;11.73;5.18;;;15.80;99.90;;;;;;5055776;28;19911;-78
2021/08/14 03:56:33;;;;;;;;;;;15.80;99.90;;;;;;5055750;28;20378;-77
2021/08/14 03:58:59;;;;;;;13.60;6.78;;;16.00;99.90;;;;;;5055259;28;20003;-77
2021/08/14 04:01:25;;;;;;;13.98;6.05;;;16.00;99.90;;;;;;5055314;28;20036;-77
2021/08/14 04:03:50;;;;;;;;;;;15.90;99.90;;;;;;5054914;28;20501;-77
2021/08/14 04:06:16;;;;;;;11.55;5.38;;;15.60;99.90;;;;;;5055124;28;19911;-77
2021/08/14 04:08:42;;;;;;;;;;;15.50;99.90;;;;;;5055817;28;20031;-78
2021/08/14 04:11:08;;;;;;;10.85;5.47;;;15.40;99.90;;;;;;5054978;28;19908;-79
2021/08/14 04:13:34;;;;;;;;;;;15.10;99.90;;;;;;5055422;28;20071;-78
2021/08/14 04:16:00;;;;;;;14.75;6.85;;;15.00;99.90;;;;;;5054979;28;20292;-78
2021/08/14 04:18:25;;;;;;;;;;;14.90;99.90;;;;;;5055286;28;20024;-78
2021/08/14 04:20:51;;;;;;;20.80;7.88;;;14.90;99.90;;;;;;5054842;28;19904;-79
2021/08/14 04:23:17;;;;;;;15.70;7.65;;;15.00;99.90;;;;;;5036919;28;20021;-78
2021/08/14 04:25:43;;;;;;;15.13;7.78;;;14.90;99.90;;;;;;5054694;28;20025;-78
2021/08/14 04:28:08;;;;;;;;;;;14.80;99.90;;;;;;5055561;28;20044;-78
2021/08/14 04:30:34;;;;;;;13.82;7.25;;;14.70;99.90;;;;;;5054647;28;19909;-78
2021/08/14 04:33:00;;;;;;;14.88;7.35;;;14.80;99.90;;;;;;5054749;28;20039;-77
2021/08/14 04:35:25;;;;;;;13.43;6.70;;;14.80;99.90;;;;;;5054600;28;20056;-78
2021/08/14 04:37:51;;;;;;;;;;;14.90;99.90;;;;;;5054973;28;20100;-77
2021/08/14 04:40:17;;;;;;;13.02;7.10;;;15.00;99.90;;;;;;5054536;28;19905;-78
2021/08/14 04:42:43;;;;;;;;;;;15.00;99.90;;;;;;5054858;28;20067;-78
2021/08/14 04:45:10;;;;;;;16.17;7.13;;;15.30;99.90;;;;;;5054219;28;19923;-78
2021/08/14 04:47:36;;;;;;;13.63;6.70;;;15.30;99.90;;;;;;5054321;28;20035;-78
2021/08/14 04:50:02;;;;;;;;;;;15.40;99.90;;;;;;5036856;28;20489;-78
2021/08/14 04:52:28;;;;;;;11.63;6.30;;;15.70;99.90;;;;;;5054532;28;19908;-79
2021/08/14 04:54:53;;;;;;;;;;;15.60;99.90;;;;;;5054704;28;20473;-78
2021/08/14 04:57:19;;;;;;;19.33;6.68;;;15.40;99.90;;;;;;5054198;28;19908;-78
2021/08/14 04:59:45;;;;;;;;;;;15.30;99.90;;;;;;5036665;28;20021;-77
2021/08/14 05:02:10;;;;;;;;;;;15.20;99.90;;;;;;5054549;28;19904;-77
2021/08/14 05:04:36;;;;;;;;;;;15.30;99.90;;;;;;5054506;28;19905;-77
2021/08/14 05:07:02;;;;;;;;;;;15.60;99.90;;;;;;5054567;28;19911;-79
2021/08/14 05:09:27;;;;;;;;;;;15.40;99.90;;;;;;5036548;28;20292;-78
2021/08/14 05:11:53;;;;;;;10.05;5.20;;;15.20;99.90;;;;;;5053825;28;19915;-76
2021/08/14 05:14:19;;;;;;;;;;;15.50;99.90;;;;;;5053439;28;20040;-78
2021/08/14 05:16:45;;;;;;;15.20;5.68;;;15.70;99.90;;;;;;5054029;28;20377;-77
2021/08/14 05:19:11;;;;;;;10.40;5.40;;;15.80;99.90;;;;;;5053771;28;20071;-78
2021/08/14 05:21:37;;;;;;;;;;;15.90;99.90;;;;;;5036241;28;20079;-78
2021/08/14 05:24:03;;;;;;;12.60;5.53;;;15.90;99.90;;;;;;5053632;28;19905;-79
2021/08/14 05:26:30;;;;;;;13.70;5.80;;;16.00;99.90;;;;;;5053583;28;20028;-79
2021/08/14 05:28:56;;;;;;;23.50;7.97;;;15.90;99.90;;;;;;5053517;28;20074;-78
2021/08/14 05:31:21;;;;;;;;;;;15.70;99.90;;;;;;5054079;28;20029;-79
2021/08/14 05:33:47;;;;;;;21.88;9.45;;;15.60;99.90;;;;;;5053576;28;19909;-78
2021/08/14 05:36:13;;;;;;;;;;;15.70;99.90;;;;;;5054014;28;20478;-78
2021/08/14 05:38:39;;;;;;;18.13;8.65;;;15.90;99.90;;;;;;5053702;28;20418;-78
2021/08/14 05:41:06;;;;;;;19.42;9.82;;;16.00;99.90;;;;;;5053451;28;20032;-78
2021/08/14 05:43:31;;;;;;;15.90;8.75;;;15.90;99.90;;;;;;5053337;28;20021;-78
2021/08/14 05:45:57;;;;;;;;;;;15.80;99.90;;;;;;5053646;28;20120;-78
2021/08/14 05:48:23;;;;;;;18.15;8.07;;;15.70;99.90;;;;;;5053311;28;19912;-79
2021/08/14 05:50:48;;;;;;;;;;;15.60;99.90;;;;;;5053628;28;20421;-78
2021/08/14 05:53:15;;;;;;;20.92;8.13;;;15.90;99.90;;;;;;5053241;28;19904;-78
2021/08/14 05:55:41;;;;;;;18.05;8.68;;;16.00;99.90;;;;;;5053199;28;20104;-78
2021/08/14 05:58:06;;;;;;;;;;;15.70;99.90;;;;;;5053589;28;20049;-78
2021/08/14 06:00:32;;;;;;;15.73;8.18;;;16.00;99.90;;;;;;5053213;28;19905;-78
2021/08/14 06:02:58;;;;;;;;;;;16.20;99.90;;;;;;5035711;28;20071;-78
2021/08/14 06:05:24;;;;;;;16.70;8.05;;;16.20;99.90;;;;;;5053167;28;20315;-79
2021/08/14 06:07:50;;;;;;;;;;;16.40;99.90;;;;;;5053703;28;20409;-77
2021/08/14 06:10:17;;;;;;;14.98;7.53;;;16.50;99.90;;;;;;5053288;28;19904;-78
2021/08/14 06:12:44;;;;;;;42.63;10.38;;;16.40;99.90;;;;;;5052952;28;20029;-79
2021/08/14 06:15:10;;;;;;;17.75;8.57;;;16.40;99.90;;;;;;5052995;28;20021;-78
2021/08/14 06:17:36;;;;;;;44.38;12.57;;;16.30;99.90;;;;;;5053076;28;20064;-77
2021/08/14 06:20:02;;;;;;;;;;;16.40;99.90;;;;;;5053389;28;20058;-78
2021/08/14 06:22:28;;;;;;;14.75;7.57;;;16.60;99.90;;;;;;5053088;28;19958;-78
2021/08/14 06:24:54;;;;;;;;;;;16.80;99.90;;;;;;5035428;28;20064;-80
2021/08/14 06:27:20;;;;;;;16.45;7.53;;;16.80;99.90;;;;;;5056982;28;20278;-78
2021/08/14 06:29:46;;;;;;;15.27;7.13;;;16.70;99.90;;;;;;5056916;28;20028;-79
2021/08/14 06:32:12;;;;;;;11.20;7.45;;;16.60;99.90;;;;;;5057057;28;20039;-78
2021/08/14 06:34:38;;;;;;;;;;;16.90;99.90;;;;;;5057307;28;20100;-78
2021/08/14 06:37:04;;;;;;;10.00;6.55;;;17.00;99.90;;;;;;5057120;28;19904;-78
2021/08/14 06:39:30;;;;;;;10.30;6.60;;;16.90;99.90;;;;;;5056858;28;20112;-79
2021/08/14 06:41:56;;;;;;;;;;;17.20;99.90;;;;;;5057378;28;20062;-78
2021/08/14 06:44:22;;;;;;;11.18;7.35;;;17.00;99.90;;;;;;5038629;28;19911;-79
2021/08/14 06:46:47;;;;;;;;;;;17.00;99.90;;;;;;5057017;28;20032;-78
2021/08/14 06:49:13;;;;;;;17.77;8.07;;;16.90;99.90;;;;;;5056667;28;19905;-77
2021/08/14 06:51:39;;;;;;;;;;;17.00;99.90;;;;;;5056913;28;20032;-79
2021/08/14 06:54:05;;;;;;;12.57;7.60;;;17.00;99.90;;;;;;5056879;28;19905;-78
2021/08/14 06:56:31;;;;;;;11.82;8.40;;;17.10;99.90;;;;;;5056479;28;20587;-79
2021/08/14 06:58:57;;;;;;;12.52;8.02;;;17.50;99.90;;;;;;5056444;28;20104;-79
2021/08/14 07:01:22;;;;;;;11.45;7.32;;;18.10;99.90;;;;;;5056460;28;20036;-78
2021/08/14 07:03:48;;;;;;;14.70;7.72;;;18.90;99.90;;;;;;5056268;28;20500;-78
2021/08/14 07:06:20;;;;;;;11.13;7.05;;;19.80;99.90;;;;;;5056239;28;20036;-78
2021/08/14 07:08:46;;;;;;;12.98;8.00;;;21.10;99.90;;;;;;5056556;28;20089;-79
2021/08/14 07:11:13;;;;;;;12.38;7.63;;;21.50;99.90;;;;;;5056108;28;20096;-78
2021/08/14 07:13:39;;;;;;;11.57;8.93;;;21.90;99.90;;;;;;5056209;28;20100;-78
2021/08/14 07:16:05;;;;;;;14.93;8.77;;;22.30;99.90;;;;;;5056020;28;20151;-79
2021/08/14 07:18:31;;;;;;;13.73;9.57;;;23.10;99.90;;;;;;5038160;28;20039;-79
2021/08/14 07:20:57;;;;;;;14.73;10.10;;;23.00;99.90;;;;;;5056565;28;20025;-80
2021/08/14 07:23:23;;;;;;;14.13;10.27;;;23.60;99.90;;;;;;5055984;28;20028;-79
2021/08/14 07:25:50;;;;;;;18.00;11.38;;;23.90;99.90;;;;;;5055828;28;20044;-79
2021/08/14 07:28:16;;;;;;;14.52;10.40;;;23.50;99.90;;;;;;5037807;28;20032;-80
2021/08/14 07:30:42;;;;;;;14.32;10.20;;;23.60;99.90;;;;;;5037757;28;20028;-80
2021/08/14 07:33:08;;;;;;;15.65;11.32;;;23.60;99.90;;;;;;5055727;28;20020;-80
2021/08/14 07:35:33;;;;;;;14.35;9.70;;;23.90;99.90;;;;;;5055695;28;20021;-80
2021/08/14 07:37:59;;;;;;;14.13;12.18;;;24.10;99.90;;;;;;5036671;28;20386;-79
2021/08/14 07:40:25;;;;;;;13.48;10.82;;;23.70;99.90;;;;;;5037722;28;20021;-79
2021/08/14 07:42:52;;;;;;;14.73;10.57;;;24.40;99.90;;;;;;5055540;28;20029;-79
2021/08/14 07:45:18;;;;;;;15.95;10.82;;;23.50;99.90;;;;;;5055339;28;20048;-80
2021/08/14 07:47:47;;;;;;;17.33;9.68;;;24.10;99.90;;;;;;5055516;28;20036;-81
2021/08/14 07:50:24;;;;;;;21.05;9.35;;;24.00;99.90;;;;;;5055402;28;20021;-79
2021/08/14 07:52:51;;;;;;;13.73;9.50;;;24.10;99.90;;;;;;5055317;28;20086;-79
2021/08/14 07:55:17;;;;;;;15.43;9.93;;;24.20;99.90;;;;;;5054464;28;20393;-81
2021/08/14 07:57:45;;;;;;;14.18;9.23;;;24.80;99.90;;;;;;5020635;28;20541;-79
2021/08/14 08:00:14;;;;;;;18.85;8.90;;;24.80;99.90;;;;;;5055231;28;20024;-80
2021/08/14 08:02:40;;;;;;;12.45;8.80;;;24.70;99.90;;;;;;5037225;28;20021;-79
2021/08/14 08:05:13;;;;;;;13.30;8.38;;;25.10;99.90;;;;;;5055012;28;20393;-79
2021/08/14 08:07:43;;;;;;;14.80;9.00;;;24.80;99.80;;;;;;5021607;28;20041;-79
2021/08/14 08:10:13;;;;;;;14.73;9.18;;;24.50;99.90;;;;;;5055028;28;20021;-79
2021/08/14 08:12:39;;;;;;;15.70;8.27;;;25.20;99.50;;;;;;5036334;28;20493;-80
2021/08/14 08:15:07;;;;;;;14.57;8.20;;;24.70;99.10;;;;;;5054004;28;20088;-79
2021/08/14 08:17:32;;;;;;;19.27;10.90;;;24.90;99.30;;;;;;5036738;28;20075;-79
2021/08/14 08:19:58;;;;;;;17.80;9.48;;;25.50;97.80;;;;;;5054422;28;20409;-78
2021/08/14 08:22:24;;;;;;;18.80;8.30;;;25.40;97.30;;;;;;5054413;28;20367;-81
2021/08/14 08:24:50;;;;;;;15.05;9.38;;;25.30;97.70;;;;;;5054655;28;20052;-79
2021/08/14 08:27:16;;;;;;;16.05;9.68;;;25.70;97.00;;;;;;5055116;28;20025;-79
2021/08/14 08:29:42;;;;;;;15.75;8.75;;;25.60;96.40;;;;;;5054665;28;20398;-78
2021/08/14 08:32:09;;;;;;;19.83;8.68;;;26.20;96.20;;;;;;5036740;28;20123;-79
2021/08/14 08:34:35;;;;;;;13.40;8.18;;;26.40;95.70;;;;;;5054541;28;20025;-79
2021/08/14 08:37:02;;;;;;;18.30;9.00;;;26.80;95.80;;;;;;5054504;28;20083;-79
2021/08/14 08:39:28;;;;;;;14.57;8.50;;;27.30;95.10;;;;;;5036603;28;20025;-79
2021/08/14 08:41:56;;;;;;;15.45;9.38;;;27.70;94.10;;;;;;5054425;28;20022;-79
2021/08/14 08:44:22;;;;;;;15.43;9.30;;;27.30;94.30;;;;;;5054190;28;20021;-77
2021/08/14 08:46:48;;;;;;;15.75;10.52;;;28.10;93.10;;;;;;5054377;28;20037;-80
2021/08/14 08:49:17;;;;;;;20.88;10.38;;;28.50;91.30;;;;;;5054161;28;20025;-80
2021/08/14 08:51:43;;;;;;;21.25;15.65;;;28.00;92.10;;;;;;5054192;28;20039;-80
2021/08/14 08:54:12;;;;;;;16.33;9.05;;;27.70;91.00;;;;;;5036770;28;20048;-80
2021/08/14 08:56:38;;;;;;;16.40;11.48;;;28.80;91.40;;;;;;5054772;28;20017;-80
2021/08/14 08:59:04;;;;;;;16.77;10.57;;;29.50;88.10;;;;;;5036216;28;20025;-80
2021/08/14 09:01:30;;;;;;;17.45;10.73;;;29.40;87.00;;;;;;5054020;28;20029;-80
2021/08/14 09:04:18;;;;;;;18.75;12.77;;;29.50;85.60;;;;;;5036139;28;20123;-81
2021/08/14 09:06:44;;;;;;;16.75;12.23;;;29.70;86.20;;;;;;5054014;28;20098;-81
2021/08/14 09:09:13;;;;;;;16.45;13.77;;;31.60;82.20;;;;;;5054288;28;20455;-80
2021/08/14 09:11:52;;;;;;;16.30;14.32;;;31.70;78.80;;;;;;5035896;28;20116;-80
2021/08/14 09:14:18;;;;;;;21.75;19.50;;;32.90;74.20;;;;;;5053916;28;20083;-80
2021/08/14 09:16:44;;;;;;;19.42;15.55;;;32.60;72.90;;;;;;5053909;28;20025;-81
2021/08/14 09:19:21;;;;;;;21.83;19.70;;;32.50;72.00;;;;;;5053830;28;20017;-79
2021/08/14 09:21:47;;;;;;;20.15;16.52;;;31.60;73.40;;;;;;5035575;28;20028;-80
2021/08/14 09:24:30;;;;;;;20.05;16.23;;;31.30;74.30;;;;;;5053810;28;20021;-80
2021/08/14 09:26:56;;;;;;;24.05;21.45;;;32.90;70.80;;;;;;5035498;28;20520;-81
2021/08/14 09:29:38;;;;;;;20.70;18.60;;;32.80;67.50;;;;;;5053566;28;20021;-81
2021/08/14 09:32:08;;;;;;;17.52;15.68;;;33.10;65.20;;;;;;5053698;28;20024;-81
2021/08/14 09:34:39;;;;;;;18.48;16.55;;;33.60;66.10;;;;;;5035582;28;20460;-80
2021/08/14 09:37:07;;;;;;;21.85;19.35;;;34.10;61.80;;;;;;5053701;28;20020;-82
2021/08/14 09:40:02;;;;;;;18.10;16.20;;;34.10;62.60;;;;;;5053620;28;20029;-81
2021/08/14 09:42:28;;;;;;;26.25;23.83;;;35.60;59.60;;;;;;5053328;28;20025;-83
2021/08/14 09:45:14;;;;;;;23.40;21.10;;;36.60;56.70;;;;;;5053059;28;20048;-81
2021/08/14 09:47:42;;;;;;;22.10;19.90;;;35.20;56.70;;;;;;5053271;28;20033;-81
2021/08/14 09:50:08;;;;;;;23.20;20.90;;;35.80;55.80;;;;;;5053195;28;20499;-80
2021/08/14 09:52:35;;;;;;;23.48;21.27;;;36.10;54.00;;;;;;5035371;28;20021;-81
2021/08/14 09:55:00;;;;;;;24.15;21.73;;;37.10;52.50;;;;;;5035043;28;20037;-80
2021/08/14 09:57:26;;;;;;;21.55;19.58;;;37.40;50.80;;;;;;5052928;28;20036;-81
2021/08/14 09:59:53;;;;;;;29.48;27.02;;;38.60;49.90;;;;;;5052474;28;20029;-81
2021/08/14 10:02:27;;;;;;;25.02;22.63;;;40.40;46.00;;;;;;5034941;28;20528;-82
2021/08/14 10:04:55;;;;;;;36.28;33.20;;;41.40;44.50;;;;;;5034159;28;20025;-81
2021/08/14 10:07:21;;;;;;;39.80;36.40;;;40.80;44.80;;;;;;5033811;28;20025;-81
2021/08/14 10:09:48;;;;;;;48.63;44.72;;;42.30;42.70;;;;;;5052391;28;20389;-79
2021/08/14 10:12:16;;;;;;;45.25;41.60;;;42.70;41.00;;;;;;5052566;28;20021;-79
2021/08/14 10:14:44;;;;;;;68.60;63.40;;;42.10;41.00;;;;;;5052486;28;20084;-81
2021/08/14 10:17:11;;;;;;;53.35;49.20;;;43.60;39.50;;;;;;5052522;28;20389;-81
2021/08/14 10:19:37;;;;;;;82.68;76.63;;;44.20;38.90;;;;;;5052970;28;20021;-80
2021/08/14 10:22:05;;;;;;;46.97;43.28;;;44.60;38.40;;;;;;5052958;28;20029;-81
2021/08/14 10:24:40;;;;;;;77.05;71.05;;;45.20;37.90;;;;;;5052864;28;20083;-80
2021/08/14 10:27:08;;;;;;;58.78;53.97;;;45.60;36.90;;;;;;5034984;28;20025;-81
2021/08/14 10:29:55;;;;;;;75.90;70.15;;;44.90;37.60;;;;;;5052888;28;20104;-80
2021/08/14 10:32:32;;;;;;;52.13;48.33;;;45.30;37.00;;;;;;5052896;28;20465;-80
2021/08/14 10:35:30;;;;;;;65.05;60.10;;;44.60;37.10;;;;;;5052824;28;20166;-80
2021/08/14 10:37:56;;;;;;;72.93;67.22;;;44.00;38.30;;;;;;5052909;28;20025;-81
2021/08/14 10:40:22;;;;;;;60.72;56.30;;;42.40;37.20;;;;;;5052765;28;20071;-81
2021/08/14 10:42:52;;;;;;;60.60;55.67;;;44.60;37.10;;;;;;5053167;28;20033;-80
2021/08/14 10:45:38;;;;;;;59.92;55.47;;;45.10;36.20;;;;;;5047529;28;20059;-80
2021/08/14 10:48:05;;;;;;;94.82;87.68;;;46.00;35.60;;;;;;5072389;28;20028;-81
2021/08/14 10:50:31;;;;;;;43.55;40.22;;;46.00;35.20;;;;;;5072765;28;20540;-81
2021/08/14 10:53:26;;;;;;;62.40;57.70;;;47.80;34.70;;;;;;5072762;28;20099;-80
2021/08/14 10:55:54;;;;;;;66.88;61.63;;;48.10;33.90;;;;;;5062708;28;20091;-81
2021/08/14 10:58:32;;;;;;;72.57;66.88;;;47.60;33.30;;;;;;5072753;28;20028;-81
2021/08/14 11:01:04;;;;;;;85.43;78.72;;;47.80;32.60;;;;;;5072529;28;20473;-80
2021/08/14 11:03:34;;;;;;;55.72;51.50;;;47.20;33.40;;;;;;5072670;28;20017;-80
2021/08/14 11:06:29;;;;;;;77.05;71.13;;;47.70;33.50;;;;;;5072936;28;20029;-81
2021/08/14 11:09:17;;;;;;;65.80;61.03;;;46.40;34.10;;;;;;5071296;28;20104;-81
2021/08/14 11:11:43;;;;;;;42.70;38.95;;;47.20;32.60;;;;;;5073766;28;20162;-80
2021/08/14 11:14:11;;;;;;;43.40;39.65;;;48.40;32.70;;;;;;5076125;28;20017;-80
2021/08/14 11:16:56;;;;;;;39.08;35.70;;;48.10;32.30;;;;;;5076073;28;20101;-81
2021/08/14 11:19:42;;;;;;;39.38;36.00;;;48.10;32.50;;;;;;5076054;28;20366;-81
2021/08/14 11:22:28;;;;;;;44.65;40.97;;;47.50;33.20;;;;;;5076063;28;20024;-81
2021/08/14 11:24:56;;;;;;;32.45;29.65;;;48.30;32.70;;;;;;5074588;28;20029;-81
2021/08/14 11:27:25;;;;;;;36.65;33.17;;;48.10;32.90;;;;;;5074628;28;20115;-81
2021/08/14 11:29:59;;;;;;;42.15;38.45;;;48.30;32.80;;;;;;5075884;28;20028;-81
2021/08/14 11:32:26;;;;;;;35.38;32.40;;;48.00;32.70;;;;;;5075814;28;20016;-82
2021/08/14 11:34:53;;;;;;;37.47;34.42;;;47.30;33.20;;;;;;5075988;28;20024;-80
2021/08/14 11:37:19;;;;;;;39.63;36.00;;;46.50;33.50;;;;;;5074486;28;20059;-81
2021/08/14 11:39:46;;;;;;;38.15;34.92;;;47.50;33.30;;;;;;5074448;28;20139;-81
2021/08/14 11:42:12;;;;;;;49.00;45.05;;;48.60;32.40;;;;;;5075639;28;20087;-81
2021/08/14 11:44:40;;;;;;;43.53;39.72;;;47.50;31.80;;;;;;5072841;28;20036;-80
2021/08/14 11:47:08;;;;;;;41.15;37.72;;;48.30;32.20;;;;;;5037458;28;20413;-80
2021/08/14 11:50:05;;;;;;;40.15;36.92;;;48.20;32.30;;;;;;5037626;28;20033;-80
2021/08/14 11:52:31;;;;;;;38.53;35.35;;;48.70;31.50;;;;;;5042791;28;20044;-80
2021/08/14 11:55:08;;;;;;;47.10;43.33;;;48.10;31.60;;;;;;5055415;28;20025;-80
2021/08/14 11:57:39;;;;;;;42.20;38.63;;;47.70;30.90;;;;;;5037235;28;20481;-80
2021/08/14 12:00:20;;;;;;;40.33;36.88;;;49.00;31.10;;;;;;5055358;28;20554;-81
2021/08/14 12:02:47;;;;;;;31.67;28.95;;;49.90;31.20;;;;;;5037068;28;20032;-80
2021/08/14 12:05:13;;;;;;;37.97;34.75;;;49.50;31.70;;;;;;5055160;28;20029;-81
2021/08/14 12:07:45;;;;;;;44.20;40.33;;;50.30;31.40;;;;;;5055115;28;20028;-81
2021/08/14 12:10:11;;;;;;;47.40;43.55;;;51.40;31.00;;;;;;5055115;28;20579;-80
2021/08/14 12:12:36;;;;;;;40.92;37.65;;;51.10;30.50;;;;;;5037098;28;20056;-80
2021/08/14 12:15:10;;;;;;;33.50;30.70;;;52.80;30.50;;;;;;5037034;28;20079;-80
2021/08/14 12:17:43;;;;;;;40.88;37.47;;;50.80;30.70;;;;;;5055030;28;20021;-81
2021/08/14 12:20:09;;;;;;;51.17;46.72;;;50.90;30.00;;;;;;5054967;28;20082;-81
2021/08/14 12:22:37;;;;;;;41.80;38.22;;;50.60;30.20;;;;;;5036912;28;20397;-80
2021/08/14 12:25:22;;;;;;;42.08;38.47;;;50.90;30.60;;;;;;5036299;28;20033;-81
2021/08/14 12:27:48;;;;;;;38.03;34.95;;;53.00;30.00;;;;;;5055323;28;20489;-81
2021/08/14 12:30:23;;;;;;;35.30;32.42;;;52.50;29.70;;;;;;5054721;28;20033;-81
2021/08/14 12:32:53;;;;;;;33.20;30.55;;;52.80;29.20;;;;;;5054796;28;20025;-81
2021/08/14 12:35:22;;;;;;;32.00;29.42;;;53.10;29.80;;;;;;5036756;28;20033;-81
2021/08/14 12:37:50;;;;;;;35.72;32.75;;;51.10;29.30;;;;;;5036677;28;20062;-80
2021/08/14 12:40:18;;;;;;;36.38;33.38;;;53.20;29.60;;;;;;5036685;28;20029;-81
2021/08/14 12:42:45;;;;;;;37.40;34.28;;;53.40;29.50;;;;;;5054544;28;20107;-81
2021/08/14 12:45:22;;;;;;;29.08;26.65;;;53.10;30.00;;;;;;5054416;28;20420;-81
2021/08/14 12:47:52;;;;;;;36.65;33.70;;;52.90;29.60;;;;;;5036235;28;20555;-82
2021/08/14 12:50:32;;;;;;;37.65;34.67;;;54.00;29.50;;;;;;5054383;28;20079;-80
2021/08/14 12:53:10;;;;;;;29.85;27.55;;;55.50;28.80;;;;;;5036330;28;20025;-82
2021/08/14 12:55:44;;;;;;;30.83;28.33;;;56.30;28.80;;;;;;5054426;28;20028;-82